createdAt,value
2022-09-28T06:31:32.975Z,97310.88
2022-09-28T06:34:35.227Z,97314.72
2022-09-28T06:37:36.867Z,97317.84
2022-09-28T06:40:39.461Z,97332.13
2022-09-28T06:43:41.350Z,97332.56
2022-09-28T06:47:01.741Z,97330.22
2022-09-28T06:50:16.303Z,97324.94
2022-09-28T06:53:37.282Z,97333.38
2022-09-28T06:56:54.399Z,97341.06
2022-09-28T06:59:56.142Z,97347.25
2022-09-28T07:02:57.847Z,97341.88
2022-09-28T07:06:13.928Z,97353.50
2022-09-28T07:09:41.442Z,97353.44
2022-09-28T07:12:56.959Z,97365.84
2022-09-28T07:16:21.680Z,97373.16
2022-09-28T07:19:27.881Z,97367.38
2022-09-28T07:22:40.983Z,97376.22
2022-09-28T07:25:48.108Z,97382.56
2022-09-28T07:29:06.446Z,97385.56
2022-09-28T07:32:27.760Z,97387.94
2022-09-28T07:35:55.905Z,97389.50
2022-09-28T07:39:02.364Z,97407.66
2022-09-28T07:42:04.242Z,97405.47
2022-09-28T07:45:07.032Z,97414.69
2022-09-28T07:48:08.823Z,97422.16
2022-09-28T07:51:33.665Z,97423.13
2022-09-28T07:54:54.960Z,97419.72
2022-09-28T07:58:22.820Z,97432.19
2022-09-28T08:01:44.820Z,97425.38
2022-09-28T08:04:50.044Z,97434.78
2022-09-28T08:07:53.003Z,97428.56
2022-09-28T08:10:56.836Z,97433.34
2022-09-28T08:14:17.285Z,97433.81
2022-09-28T08:17:49.287Z,97441.63
2022-09-28T08:21:12.514Z,97445.25
2022-09-28T08:24:16.143Z,97446.06
2022-09-28T08:27:18.539Z,97455.72
2022-09-28T08:30:20.302Z,97468.84
2022-09-28T08:33:42.439Z,97468.06
2022-09-28T08:37:22.540Z,97450.72
2022-09-28T08:40:53.121Z,97457.66
2022-09-28T08:44:28.740Z,97454.25
2022-09-28T08:48:15.000Z,97456.56
2022-09-28T08:51:57.265Z,97473.78
2022-09-28T08:55:24.218Z,97461.91
2022-09-28T08:58:31.687Z,97466.69
2022-09-28T09:01:41.746Z,97472.97
2022-09-28T09:04:47.978Z,97478.00
2022-09-28T09:08:11.426Z,97478.25
2022-09-28T09:11:34.984Z,97484.78
2022-09-28T09:15:02.822Z,97485.16
2022-09-28T09:18:27.999Z,97494.13
2022-09-28T09:22:01.701Z,97497.50
2022-09-28T09:25:23.874Z,97503.44
2022-09-28T09:28:48.443Z,97504.56
2022-09-28T09:32:09.796Z,97506.34
2022-09-28T09:35:42.726Z,97502.09
2022-09-28T09:39:24.788Z,97500.97
2022-09-28T09:43:11.037Z,97504.38
2022-09-28T09:46:37.740Z,97511.25
2022-09-28T09:50:09.037Z,97507.50
2022-09-28T09:53:17.018Z,97520.66
2022-09-28T09:56:48.845Z,97507.16
2022-09-28T10:00:15.403Z,97510.31
2022-09-28T10:38:42.159Z,97439.81
2022-09-28T10:42:25.320Z,97492.84
2022-09-28T10:50:25.936Z,97428.88
2022-09-28T10:58:47.481Z,97439.00
2022-09-28T11:02:35.715Z,97440.66
2022-09-28T11:06:35.914Z,97426.81
2022-09-28T11:10:11.815Z,97434.09
2022-09-28T11:21:55.352Z,97488.97
2022-09-28T11:25:23.429Z,97414.47
2022-09-28T11:28:36.772Z,97405.19
2022-09-28T11:31:51.095Z,97445.66
2022-09-28T11:35:04.214Z,97434.81
2022-09-28T11:38:13.248Z,97486.78
2022-09-28T11:42:03.057Z,97451.25
2022-09-28T11:45:51.447Z,97493.69
2022-09-28T11:49:04.949Z,97449.47
2022-09-28T11:52:32.938Z,97438.66
2022-09-28T11:55:48.966Z,97429.78
2022-09-28T11:59:15.496Z,97462.00
2022-09-28T12:02:51.646Z,97482.06
2022-09-28T12:06:09.218Z,97422.25
2022-09-28T12:09:22.852Z,97431.47
2022-09-28T12:13:04.058Z,97465.53
2022-09-28T12:17:04.276Z,97442.41
2022-09-28T12:20:29.433Z,97429.59
2022-09-28T12:23:49.586Z,97412.09
2022-09-28T12:27:20.370Z,97443.59
2022-09-28T12:30:31.802Z,97398.94
2022-09-28T12:33:41.161Z,97399.38
2022-09-28T12:36:56.026Z,97459.13
2022-09-28T12:40:00.183Z,97468.91
2022-09-28T12:43:54.863Z,97463.16
2022-09-28T12:47:06.673Z,97457.34
2022-09-28T12:50:45.575Z,97465.13
2022-09-28T12:53:55.877Z,97461.63
2022-09-28T12:57:02.198Z,97453.50
2022-09-28T13:00:13.602Z,97396.03
2022-09-28T13:03:47.754Z,97430.91
2022-09-28T13:06:55.789Z,97459.66
2022-09-28T13:10:22.727Z,97456.63
2022-09-28T13:13:48.077Z,97432.94
2022-09-28T13:17:12.453Z,97461.25
2022-09-28T13:20:32.327Z,97471.34
2022-09-28T13:23:40.574Z,97465.09
2022-09-28T13:26:45.795Z,97449.22
2022-09-28T13:29:49.887Z,97465.53
2022-09-28T13:32:54.233Z,97436.00
2022-09-28T13:35:56.982Z,97467.81
2022-09-28T13:39:00.338Z,97440.22
2022-09-28T13:42:02.695Z,97444.06
2022-09-28T13:45:13.732Z,97473.03
2022-09-28T13:48:34.631Z,97475.44
2022-09-28T13:52:10.243Z,97480.13
2022-09-28T13:55:11.890Z,97470.06
2022-09-28T13:58:24.467Z,97470.41
2022-09-28T14:01:42.727Z,97478.13
2022-09-28T14:05:07.087Z,97476.97
2022-09-28T14:08:08.739Z,97476.56
2022-09-28T14:11:34.393Z,97475.75
2022-09-28T14:14:51.141Z,97473.44
2022-09-28T14:18:02.131Z,97468.78
2022-09-28T14:21:31.380Z,97471.84
2022-09-28T14:25:01.064Z,97473.41
2022-09-28T14:28:23.289Z,97483.84
2022-09-28T14:31:28.577Z,97479.88
2022-09-28T14:34:43.803Z,97487.09
2022-09-28T14:38:08.654Z,97481.69
2022-09-28T14:41:29.572Z,97496.00
2022-09-28T14:45:06.288Z,97489.47
2022-09-28T14:48:15.718Z,97499.13
2022-09-28T14:51:26.646Z,97489.84
2022-09-28T14:54:38.415Z,97489.13
2022-09-28T14:57:41.872Z,97504.63
2022-09-28T15:00:45.897Z,97505.34
2022-09-28T15:03:53.494Z,97496.38
2022-09-28T15:06:55.323Z,97510.34
2022-09-28T15:09:58.614Z,97497.09
2022-09-28T15:13:03.421Z,97497.13
2022-09-28T15:16:10.493Z,97495.94
2022-09-28T15:19:25.195Z,97504.44
2022-09-28T15:22:27.410Z,97509.50
2022-09-28T15:25:31.781Z,97495.47
2022-09-28T15:28:35.375Z,97510.13
2022-09-28T15:31:36.973Z,97486.03
2022-09-28T15:34:54.791Z,97497.66
2022-09-28T15:37:56.520Z,97511.66
2022-09-28T15:40:58.682Z,97510.84
2022-09-28T15:44:12.761Z,97518.59
2022-09-28T15:47:25.251Z,97504.56
2022-09-28T15:50:30.034Z,97513.91
2022-09-28T15:53:33.286Z,97516.19
2022-09-28T15:57:01.921Z,97486.66
2022-09-28T16:00:28.888Z,97493.56
2022-09-28T16:03:31.246Z,97514.22
2022-09-28T16:06:32.860Z,97509.09
2022-09-28T16:09:54.948Z,97501.66
2022-09-28T16:13:08.283Z,97511.44
2022-09-28T16:16:15.590Z,97511.63
2022-09-28T16:19:27.914Z,97511.44
2022-09-28T16:22:34.301Z,97506.81
2022-09-28T16:25:39.228Z,97508.31
2022-09-28T16:28:41.476Z,97509.41
2022-09-28T16:31:51.394Z,97511.75
2022-09-28T16:35:11.444Z,97513.53
2022-09-28T16:38:14.991Z,97523.78
2022-09-28T16:41:27.397Z,97517.81
2022-09-28T16:44:30.024Z,97523.81
2022-09-28T16:47:34.917Z,97521.09
2022-09-28T16:50:36.470Z,97510.63
2022-09-28T16:53:56.796Z,97522.56
2022-09-28T16:56:58.914Z,97527.78
2022-09-28T17:00:01.475Z,97532.00
2022-09-28T17:03:17.375Z,97535.31
2022-09-28T17:06:22.045Z,97543.13
2022-09-28T17:09:23.966Z,97533.66
2022-09-28T17:12:28.263Z,97537.16
2022-09-28T17:15:29.962Z,97541.38
2022-09-28T17:18:32.219Z,97537.16
2022-09-28T17:21:33.995Z,97547.72
2022-09-28T17:24:35.630Z,97524.75
2022-09-28T17:27:40.340Z,97545.75
2022-09-28T17:30:42.074Z,97540.19
2022-09-28T17:33:43.834Z,97546.34
2022-09-28T17:36:45.791Z,97549.16
2022-09-28T17:39:47.484Z,97539.69
2022-09-28T17:42:49.396Z,97546.31
2022-09-28T17:45:51.303Z,97544.00
2022-09-28T17:48:53.789Z,97548.25
2022-09-28T17:51:55.412Z,97546.16
2022-09-28T17:54:57.042Z,97549.66
2022-09-28T17:58:01.258Z,97564.09
2022-09-28T18:01:02.857Z,97562.47
2022-09-28T18:04:06.762Z,97568.91
2022-09-28T18:07:09.150Z,97570.56
2022-09-28T18:10:16.477Z,97575.19
2022-09-28T18:13:18.254Z,97573.50
2022-09-28T18:16:20.217Z,97576.69
2022-09-28T18:19:21.882Z,97582.94
2022-09-28T18:22:23.578Z,97588.09
2022-09-28T18:25:25.215Z,97600.00
2022-09-28T18:28:26.858Z,97590.72
2022-09-28T18:31:28.541Z,97601.00
2022-09-28T18:34:30.416Z,97601.69
2022-09-28T18:37:36.395Z,97617.28
2022-09-28T18:40:38.282Z,97616.78
2022-09-28T18:43:40.484Z,97614.94
2022-09-28T18:46:42.727Z,97616.63
2022-09-28T18:49:46.738Z,97598.09
2022-09-28T18:52:48.847Z,97620.47
2022-09-28T18:55:50.546Z,97619.31
2022-09-28T18:58:52.668Z,97626.63
2022-09-28T19:01:54.443Z,97631.81
2022-09-28T19:04:56.399Z,97631.00
2022-09-28T19:07:58.120Z,97633.78
2022-09-28T19:11:06.775Z,97638.69
2022-09-28T19:14:11.105Z,97637.25
2022-09-28T19:17:12.888Z,97624.97
2022-09-28T19:20:14.593Z,97634.06
2022-09-28T19:23:16.208Z,97636.63
2022-09-28T19:26:21.264Z,97640.09
2022-09-28T19:29:23.106Z,97634.03
2022-09-28T19:32:24.769Z,97652.16
2022-09-28T19:35:26.330Z,97635.28
2022-09-28T19:38:29.485Z,97646.13
2022-09-28T19:41:44.376Z,97634.16
2022-09-28T19:44:46.447Z,97642.50
2022-09-28T19:47:49.103Z,97636.84
2022-09-28T19:50:59.172Z,97651.31
2022-09-28T19:54:05.586Z,97651.19
2022-09-28T19:57:10.514Z,97658.91
2022-09-28T20:00:12.346Z,97648.97
2022-09-28T20:03:14.174Z,97651.22
2022-09-28T20:06:17.500Z,97655.91
2022-09-28T20:09:19.850Z,97646.34
2022-09-28T20:12:22.295Z,97656.97
2022-09-28T20:15:24.102Z,97659.13
2022-09-28T20:18:27.549Z,97659.25
2022-09-28T20:21:29.877Z,97664.66
2022-09-28T20:24:32.275Z,97659.69
2022-09-28T20:27:34.084Z,97653.63
2022-09-28T20:30:37.373Z,97669.69
2022-09-28T20:33:39.493Z,97661.00
2022-09-28T20:36:42.410Z,97656.06
2022-09-28T20:39:45.226Z,97656.31
2022-09-28T20:42:46.998Z,97656.88
2022-09-28T20:45:50.569Z,97664.34
2022-09-28T20:48:54.982Z,97668.88
2022-09-28T20:51:56.650Z,97663.13
2022-09-28T20:54:58.323Z,97654.28
2022-09-28T20:58:03.219Z,97665.56
2022-09-28T21:01:14.659Z,97652.28
2022-09-28T21:04:16.612Z,97648.53
2022-09-28T21:07:18.311Z,97651.38
2022-09-28T21:10:19.955Z,97643.28
2022-09-28T21:13:22.128Z,97636.41
2022-09-28T21:16:24.128Z,97639.59
2022-09-28T21:19:25.814Z,97640.88
2022-09-28T21:22:29.068Z,97624.28
2022-09-28T21:25:31.258Z,97643.00
2022-09-28T21:28:33.459Z,97643.44
2022-09-28T21:31:40.764Z,97636.28
2022-09-28T21:34:42.529Z,97637.22
2022-09-28T21:37:44.098Z,97627.97
2022-09-28T21:40:45.795Z,97641.84
2022-09-28T21:43:47.618Z,97631.94
2022-09-28T21:46:49.334Z,97634.56
2022-09-28T21:49:50.978Z,97639.59
2022-09-28T21:52:54.652Z,97640.53
2022-09-28T21:55:57.710Z,97632.34
2022-09-28T21:59:01.263Z,97630.94
2022-09-28T22:02:05.742Z,97630.44
2022-09-28T22:08:50.787Z,97630.59
2022-09-28T22:11:52.889Z,97584.44
2022-09-28T22:14:55.214Z,97577.13
2022-09-28T22:18:02.756Z,97564.44
2022-09-28T22:21:38.006Z,97569.25
2022-09-28T22:24:40.296Z,97609.09
2022-09-28T22:27:46.302Z,97597.25
2022-09-28T22:30:52.969Z,97575.28
2022-09-28T22:33:55.297Z,97567.84
2022-09-28T22:37:49.486Z,97632.72
2022-09-28T22:40:55.113Z,97547.19
2022-09-28T22:44:01.618Z,97592.22
2022-09-28T22:47:08.239Z,97586.91
2022-09-28T22:50:10.886Z,97591.50
2022-09-28T22:53:14.330Z,97561.88
2022-09-28T22:56:18.987Z,97571.56
2022-09-28T22:59:21.308Z,97556.38
2022-09-28T23:02:23.257Z,97602.97
2022-09-28T23:05:27.532Z,97647.03
2022-09-28T23:08:30.620Z,97633.53
2022-09-28T23:11:35.253Z,97567.91
2022-09-28T23:14:37.546Z,97591.53
2022-09-28T23:17:39.671Z,97645.09
2022-09-28T23:20:41.826Z,97600.59
2022-09-28T23:23:45.588Z,97600.97
2022-09-28T23:26:58.456Z,97614.97
2022-09-28T23:30:08.003Z,97573.00
2022-09-28T23:33:17.856Z,97642.66
2022-09-28T23:36:20.034Z,97602.63
2022-09-28T23:39:29.693Z,97577.22
2022-09-28T23:42:34.792Z,97588.25
2022-09-28T23:45:54.708Z,97597.53
2022-09-28T23:48:59.275Z,97628.72
2022-09-28T23:52:08.865Z,97626.38
2022-09-28T23:55:11.025Z,97544.28
2022-09-28T23:58:44.810Z,97546.66
